sensor_id;sensor_type;location;lat;lon;timestamp;temperature;humidity
21522;DHT22;10922;45.572;10.002;2023-04-06T00:00:52;3.80;99.90
21522;DHT22;10922;45.572;10.002;2023-04-06T00:03:18;3.80;99.90
21522;DHT22;10922;45.572;10.002;2023-04-06T00:05:44;3.90;99.90
21522;DHT22;10922;45.572;10.002;2023-04-06T00:08:10;3.80;99.90
21522;DHT22;10922;45.572;10.002;2023-04-06T00:10:36;3.80;99.90
21522;DHT22;10922;45.572;10.002;2023-04-06T00:13:02;3.70;99.90
21522;DHT22;10922;45.572;10.002;2023-04-06T00:15:28;3.60;99.90
21522;DHT22;10922;45.572;10.002;2023-04-06T00:17:53;3.60;99.90
21522;DHT22;10922;45.572;10.002;2023-04-06T00:20:19;3.60;99.90
21522;DHT22;10922;45.572;10.002;2023-04-06T00:22:46;3.50;99.90
21522;DHT22;10922;45.572;10.002;2023-04-06T00:25:12;3.40;99.90
21522;DHT22;10922;45.572;10.002;2023-04-06T00:27:38;3.40;99.90
21522;DHT22;10922;45.572;10.002;2023-04-06T00:30:05;3.30;99.90
21522;DHT22;10922;45.572;10.002;2023-04-06T00:32:31;3.40;99.90
21522;DHT22;10922;45.572;10.002;2023-04-06T00:34:57;3.30;99.90
21522;DHT22;10922;45.572;10.002;2023-04-06T00:37:23;3.30;99.90
21522;DHT22;10922;45.572;10.002;2023-04-06T00:39:49;3.30;99.90
21522;DHT22;10922;45.572;10.002;2023-04-06T00:42:18;3.30;99.90
21522;DHT22;10922;45.572;10.002;2023-04-06T00:44:51;3.40;99.90
21522;DHT22;10922;45.572;10.002;2023-04-06T00:47:17;3.50;99.90
21522;DHT22;10922;45.572;10.002;2023-04-06T00:49:43;3.40;99.90
21522;DHT22;10922;45.572;10.002;2023-04-06T00:52:09;3.40;99.90
21522;DHT22;10922;45.572;10.002;2023-04-06T00:54:34;3.30;99.90
21522;DHT22;10922;45.572;10.002;2023-04-06T00:57:00;3.30;99.90
21522;DHT22;10922;45.572;10.002;2023-04-06T00:59:27;3.20;99.90
21522;DHT22;10922;45.572;10.002;2023-04-06T01:01:53;3.20;99.90
21522;DHT22;10922;45.572;10.002;2023-04-06T01:04:19;3.20;99.90
21522;DHT22;10922;45.572;10.002;2023-04-06T01:06:44;3.20;99.90
21522;DHT22;10922;45.572;10.002;2023-04-06T01:09:11;3.10;99.90
21522;DHT22;10922;45.572;10.002;2023-04-06T01:11:36;3.10;99.90
21522;DHT22;10922;45.572;10.002;2023-04-06T01:14:03;3.00;99.90
21522;DHT22;10922;45.572;10.002;2023-04-06T01:16:29;3.00;99.90
21522;DHT22;10922;45.572;10.002;2023-04-06T01:18:54;3.00;99.90
21522;DHT22;10922;45.572;10.002;2023-04-06T01:21:20;3.20;99.90
21522;DHT22;10922;45.572;10.002;2023-04-06T01:23:46;3.40;99.90
21522;DHT22;10922;45.572;10.002;2023-04-06T01:26:12;3.30;99.90
21522;DHT22;10922;45.572;10.002;2023-04-06T01:28:38;3.30;99.90
21522;DHT22;10922;45.572;10.002;2023-04-06T01:31:07;3.20;99.90
21522;DHT22;10922;45.572;10.002;2023-04-06T01:33:33;3.10;99.90
21522;DHT22;10922;45.572;10.002;2023-04-06T01:35:59;3.20;99.90
21522;DHT22;10922;45.572;10.002;2023-04-06T01:38:25;3.20;99.90
21522;DHT22;10922;45.572;10.002;2023-04-06T01:40:52;3.20;99.90
21522;DHT22;10922;45.572;10.002;2023-04-06T01:43:18;3.30;99.90
21522;DHT22;10922;45.572;10.002;2023-04-06T01:45:44;3.40;99.90
21522;DHT22;10922;45.572;10.002;2023-04-06T01:48:09;3.40;99.90
21522;DHT22;10922;45.572;10.002;2023-04-06T01:50:35;3.70;99.90
21522;DHT22;10922;45.572;10.002;2023-04-06T01:53:01;4.20;99.90
21522;DHT22;10922;45.572;10.002;2023-04-06T01:55:27;4.20;99.90
21522;DHT22;10922;45.572;10.002;2023-04-06T01:57:53;4.20;99.90
21522;DHT22;10922;45.572;10.002;2023-04-06T02:00:18;4.20;99.90
21522;DHT22;10922;45.572;10.002;2023-04-06T02:02:44;4.20;99.90
21522;DHT22;10922;45.572;10.002;2023-04-06T02:05:11;4.30;99.90
21522;DHT22;10922;45.572;10.002;2023-04-06T02:07:36;4.20;99.90
21522;DHT22;10922;45.572;10.002;2023-04-06T02:10:03;4.30;99.90
21522;DHT22;10922;45.572;10.002;2023-04-06T02:12:29;4.50;99.90
21522;DHT22;10922;45.572;10.002;2023-04-06T02:14:54;4.80;99.90
21522;DHT22;10922;45.572;10.002;2023-04-06T02:17:20;4.90;99.90
21522;DHT22;10922;45.572;10.002;2023-04-06T02:19:46;5.00;99.90
21522;DHT22;10922;45.572;10.002;2023-04-06T02:22:12;5.10;99.90
21522;DHT22;10922;45.572;10.002;2023-04-06T02:24:37;5.00;99.90
21522;DHT22;10922;45.572;10.002;2023-04-06T02:27:03;5.00;99.90
21522;DHT22;10922;45.572;10.002;2023-04-06T02:29:29;5.00;99.90
21522;DHT22;10922;45.572;10.002;2023-04-06T02:31:54;5.00;99.90
21522;DHT22;10922;45.572;10.002;2023-04-06T02:34:20;4.80;99.90
21522;DHT22;10922;45.572;10.002;2023-04-06T02:36:46;4.80;99.90
21522;DHT22;10922;45.572;10.002;2023-04-06T02:39:12;4.60;99.90
21522;DHT22;10922;45.572;10.002;2023-04-06T02:41:39;4.60;99.90
21522;DHT22;10922;45.572;10.002;2023-04-06T02:44:07;4.50;99.90
21522;DHT22;10922;45.572;10.002;2023-04-06T02:46:32;4.30;99.90
21522;DHT22;10922;45.572;10.002;2023-04-06T02:48:58;4.20;99.90
21522;DHT22;10922;45.572;10.002;2023-04-06T02:51:26;4.10;99.90
21522;DHT22;10922;45.572;10.002;2023-04-06T02:53:52;4.10;99.90
21522;DHT22;10922;45.572;10.002;2023-04-06T02:56:18;4.10;99.90
21522;DHT22;10922;45.572;10.002;2023-04-06T02:58:43;4.10;99.90
21522;DHT22;10922;45.572;10.002;2023-04-06T03:01:09;4.20;99.90
21522;DHT22;10922;45.572;10.002;2023-04-06T03:03:35;4.40;99.90
21522;DHT22;10922;45.572;10.002;2023-04-06T03:06:01;4.40;99.90
21522;DHT22;10922;45.572;10.002;2023-04-06T03:08:27;4.40;99.90
21522;DHT22;10922;45.572;10.002;2023-04-06T03:10:52;4.30;99.90
21522;DHT22;10922;45.572;10.002;2023-04-06T03:13:18;4.20;99.90
21522;DHT22;10922;45.572;10.002;2023-04-06T03:15:44;4.00;99.90
21522;DHT22;10922;45.572;10.002;2023-04-06T03:18:09;3.90;99.90
21522;DHT22;10922;45.572;10.002;2023-04-06T03:20:35;3.80;99.90
21522;DHT22;10922;45.572;10.002;2023-04-06T03:23:01;3.80;99.90
21522;DHT22;10922;45.572;10.002;2023-04-06T03:25:26;3.70;99.90
21522;DHT22;10922;45.572;10.002;2023-04-06T03:27:52;3.80;99.90
21522;DHT22;10922;45.572;10.002;2023-04-06T03:30:18;3.70;99.90
21522;DHT22;10922;45.572;10.002;2023-04-06T03:32:44;3.70;99.90
21522;DHT22;10922;45.572;10.002;2023-04-06T03:35:10;3.50;99.90
21522;DHT22;10922;45.572;10.002;2023-04-06T03:37:36;3.50;99.90
21522;DHT22;10922;45.572;10.002;2023-04-06T03:40:02;3.60;99.90
21522;DHT22;10922;45.572;10.002;2023-04-06T03:42:28;3.60;99.90
21522;DHT22;10922;45.572;10.002;2023-04-06T03:44:54;3.50;99.90
21522;DHT22;10922;45.572;10.002;2023-04-06T03:47:19;3.50;99.90
21522;DHT22;10922;45.572;10.002;2023-04-06T03:49:45;3.60;99.90
21522;DHT22;10922;45.572;10.002;2023-04-06T03:52:11;4.20;99.90
21522;DHT22;10922;45.572;10.002;2023-04-06T03:54:37;4.10;99.90
21522;DHT22;10922;45.572;10.002;2023-04-06T03:57:03;4.20;99.90
21522;DHT22;10922;45.572;10.002;2023-04-06T03:59:29;4.30;99.90
21522;DHT22;10922;45.572;10.002;2023-04-06T04:01:55;4.50;99.90
21522;DHT22;10922;45.572;10.002;2023-04-06T04:04:21;4.40;99.90
21522;DHT22;10922;45.572;10.002;2023-04-06T04:06:46;4.30;99.90
21522;DHT22;10922;45.572;10.002;2023-04-06T04:09:12;4.10;99.90
21522;DHT22;10922;45.572;10.002;2023-04-06T04:11:38;4.10;99.90
21522;DHT22;10922;45.572;10.002;2023-04-06T04:14:04;4.10;99.90
21522;DHT22;10922;45.572;10.002;2023-04-06T04:16:29;4.30;99.90
21522;DHT22;10922;45.572;10.002;2023-04-06T04:18:55;4.20;99.90
21522;DHT22;10922;45.572;10.002;2023-04-06T04:21:21;4.50;99.90
21522;DHT22;10922;45.572;10.002;2023-04-06T04:23:46;4.40;99.90
21522;DHT22;10922;45.572;10.002;2023-04-06T04:26:12;4.50;99.90
21522;DHT22;10922;45.572;10.002;2023-04-06T04:28:38;4.60;99.90
21522;DHT22;10922;45.572;10.002;2023-04-06T04:31:03;4.70;99.90
21522;DHT22;10922;45.572;10.002;2023-04-06T04:33:29;4.60;99.90
21522;DHT22;10922;45.572;10.002;2023-04-06T04:35:55;4.50;99.90
21522;DHT22;10922;45.572;10.002;2023-04-06T04:38:20;4.60;99.90
21522;DHT22;10922;45.572;10.002;2023-04-06T04:40:46;4.50;99.90
21522;DHT22;10922;45.572;10.002;2023-04-06T04:43:12;4.60;99.90
21522;DHT22;10922;45.572;10.002;2023-04-06T04:45:38;4.50;99.90
21522;DHT22;10922;45.572;10.002;2023-04-06T04:48:03;4.60;99.90
21522;DHT22;10922;45.572;10.002;2023-04-06T04:50:30;4.60;99.90
21522;DHT22;10922;45.572;10.002;2023-04-06T04:52:56;4.60;99.90
21522;DHT22;10922;45.572;10.002;2023-04-06T04:55:22;4.70;99.90
21522;DHT22;10922;45.572;10.002;2023-04-06T04:57:47;4.70;99.90
21522;DHT22;10922;45.572;10.002;2023-04-06T05:00:13;4.70;99.90
21522;DHT22;10922;45.572;10.002;2023-04-06T05:02:39;4.70;99.90
21522;DHT22;10922;45.572;10.002;2023-04-06T05:05:05;4.80;99.90
21522;DHT22;10922;45.572;10.002;2023-04-06T05:07:31;4.70;99.90
21522;DHT22;10922;45.572;10.002;2023-04-06T05:09:57;4.70;99.90
21522;DHT22;10922;45.572;10.002;2023-04-06T05:12:23;4.70;99.90
21522;DHT22;10922;45.572;10.002;2023-04-06T05:14:49;4.70;99.90
21522;DHT22;10922;45.572;10.002;2023-04-06T05:17:15;4.80;99.90
21522;DHT22;10922;45.572;10.002;2023-04-06T05:19:40;4.80;99.90
21522;DHT22;10922;45.572;10.002;2023-04-06T05:22:06;4.80;99.90
21522;DHT22;10922;45.572;10.002;2023-04-06T05:24:32;4.90;99.90
21522;DHT22;10922;45.572;10.002;2023-04-06T05:26:57;4.80;99.90
21522;DHT22;10922;45.572;10.002;2023-04-06T05:29:23;5.00;99.90
21522;DHT22;10922;45.572;10.002;2023-04-06T05:31:49;5.10;99.90
21522;DHT22;10922;45.572;10.002;2023-04-06T05:34:16;5.10;99.90
21522;DHT22;10922;45.572;10.002;2023-04-06T05:36:42;5.10;99.90
21522;DHT22;10922;45.572;10.002;2023-04-06T05:39:07;5.20;99.90
21522;DHT22;10922;45.572;10.002;2023-04-06T05:41:33;5.20;99.90
21522;DHT22;10922;45.572;10.002;2023-04-06T05:44:00;5.20;99.90
21522;DHT22;10922;45.572;10.002;2023-04-06T05:46:25;5.20;99.90
21522;DHT22;10922;45.572;10.002;2023-04-06T05:48:51;5.30;99.90
21522;DHT22;10922;45.572;10.002;2023-04-06T05:51:17;5.40;99.90
21522;DHT22;10922;45.572;10.002;2023-04-06T05:53:42;5.50;99.90
21522;DHT22;10922;45.572;10.002;2023-04-06T05:56:08;5.50;99.90
21522;DHT22;10922;45.572;10.002;2023-04-06T05:58:34;5.60;99.90
21522;DHT22;10922;45.572;10.002;2023-04-06T06:01:00;5.70;99.90
21522;DHT22;10922;45.572;10.002;2023-04-06T06:03:26;5.70;99.90
21522;DHT22;10922;45.572;10.002;2023-04-06T06:05:52;5.80;99.90
21522;DHT22;10922;45.572;10.002;2023-04-06T06:08:18;5.70;99.90
21522;DHT22;10922;45.572;10.002;2023-04-06T06:10:44;5.80;99.90
21522;DHT22;10922;45.572;10.002;2023-04-06T06:13:09;5.90;99.90
21522;DHT22;10922;45.572;10.002;2023-04-06T06:15:35;6.00;99.90
21522;DHT22;10922;45.572;10.002;2023-04-06T06:18:01;6.00;99.90
21522;DHT22;10922;45.572;10.002;2023-04-06T06:20:27;6.10;99.90
21522;DHT22;10922;45.572;10.002;2023-04-06T06:22:53;6.20;99.90
21522;DHT22;10922;45.572;10.002;2023-04-06T06:25:18;6.30;99.90
21522;DHT22;10922;45.572;10.002;2023-04-06T06:27:44;6.40;99.90
21522;DHT22;10922;45.572;10.002;2023-04-06T06:30:10;6.50;99.90
21522;DHT22;10922;45.572;10.002;2023-04-06T06:32:36;6.60;99.90
21522;DHT22;10922;45.572;10.002;2023-04-06T06:35:02;6.70;99.90
21522;DHT22;10922;45.572;10.002;2023-04-06T06:37:28;6.70;99.90
21522;DHT22;10922;45.572;10.002;2023-04-06T06:39:53;6.80;99.90
21522;DHT22;10922;45.572;10.002;2023-04-06T06:42:19;6.90;99.90
21522;DHT22;10922;45.572;10.002;2023-04-06T06:44:45;7.00;99.90
21522;DHT22;10922;45.572;10.002;2023-04-06T06:47:11;7.10;99.90
21522;DHT22;10922;45.572;10.002;2023-04-06T06:49:37;7.20;99.90
21522;DHT22;10922;45.572;10.002;2023-04-06T06:52:03;7.20;99.90
21522;DHT22;10922;45.572;10.002;2023-04-06T06:54:29;7.30;99.90
21522;DHT22;10922;45.572;10.002;2023-04-06T06:56:54;7.30;99.90
21522;DHT22;10922;45.572;10.002;2023-04-06T06:59:20;7.40;99.90
21522;DHT22;10922;45.572;10.002;2023-04-06T07:01:46;7.50;99.90
21522;DHT22;10922;45.572;10.002;2023-04-06T07:04:12;7.60;99.90
21522;DHT22;10922;45.572;10.002;2023-04-06T07:06:37;7.70;99.90
21522;DHT22;10922;45.572;10.002;2023-04-06T07:09:03;7.70;99.90
21522;DHT22;10922;45.572;10.002;2023-04-06T07:11:31;7.80;99.90
21522;DHT22;10922;45.572;10.002;2023-04-06T07:13:57;8.00;99.90
21522;DHT22;10922;45.572;10.002;2023-04-06T07:16:23;8.00;99.90
21522;DHT22;10922;45.572;10.002;2023-04-06T07:18:49;8.10;99.90
21522;DHT22;10922;45.572;10.002;2023-04-06T07:21:15;8.10;99.90
21522;DHT22;10922;45.572;10.002;2023-04-06T07:23:41;8.20;99.90
21522;DHT22;10922;45.572;10.002;2023-04-06T07:26:06;8.20;99.90
21522;DHT22;10922;45.572;10.002;2023-04-06T07:28:32;8.30;99.90
21522;DHT22;10922;45.572;10.002;2023-04-06T07:30:58;8.40;99.90
21522;DHT22;10922;45.572;10.002;2023-04-06T07:33:23;8.40;99.90
21522;DHT22;10922;45.572;10.002;2023-04-06T07:35:50;8.50;99.90
21522;DHT22;10922;45.572;10.002;2023-04-06T07:38:16;8.70;99.90
21522;DHT22;10922;45.572;10.002;2023-04-06T07:40:42;8.80;99.90
21522;DHT22;10922;45.572;10.002;2023-04-06T07:43:08;8.90;99.90
21522;DHT22;10922;45.572;10.002;2023-04-06T07:45:34;8.90;99.90
21522;DHT22;10922;45.572;10.002;2023-04-06T07:48:00;9.20;99.90
21522;DHT22;10922;45.572;10.002;2023-04-06T07:50:26;9.10;99.90
21522;DHT22;10922;45.572;10.002;2023-04-06T07:52:51;9.10;99.90
21522;DHT22;10922;45.572;10.002;2023-04-06T07:55:17;9.20;99.90
21522;DHT22;10922;45.572;10.002;2023-04-06T07:57:43;9.30;99.90
21522;DHT22;10922;45.572;10.002;2023-04-06T08:00:09;9.40;99.90
21522;DHT22;10922;45.572;10.002;2023-04-06T08:02:35;9.60;99.90
21522;DHT22;10922;45.572;10.002;2023-04-06T08:05:01;9.70;99.90
21522;DHT22;10922;45.572;10.002;2023-04-06T08:07:26;9.90;99.90
21522;DHT22;10922;45.572;10.002;2023-04-06T08:09:52;10.00;99.90
21522;DHT22;10922;45.572;10.002;2023-04-06T08:12:18;10.20;99.90
21522;DHT22;10922;45.572;10.002;2023-04-06T08:14:43;10.30;99.90
21522;DHT22;10922;45.572;10.002;2023-04-06T08:17:09;10.30;99.90
21522;DHT22;10922;45.572;10.002;2023-04-06T08:19:35;10.30;99.90
21522;DHT22;10922;45.572;10.002;2023-04-06T08:22:00;10.20;99.90
21522;DHT22;10922;45.572;10.002;2023-04-06T08:24:26;10.20;99.90
21522;DHT22;10922;45.572;10.002;2023-04-06T08:26:52;10.40;99.90
21522;DHT22;10922;45.572;10.002;2023-04-06T08:29:18;10.40;99.90
21522;DHT22;10922;45.572;10.002;2023-04-06T08:31:44;10.40;99.90
21522;DHT22;10922;45.572;10.002;2023-04-06T08:34:10;10.50;99.90
21522;DHT22;10922;45.572;10.002;2023-04-06T08:36:35;10.50;99.90
21522;DHT22;10922;45.572;10.002;2023-04-06T08:39:01;10.60;99.90
21522;DHT22;10922;45.572;10.002;2023-04-06T08:41:27;10.50;99.90
21522;DHT22;10922;45.572;10.002;2023-04-06T08:43:57;10.50;99.90
21522;DHT22;10922;45.572;10.002;2023-04-06T08:46:23;10.70;99.90
21522;DHT22;10922;45.572;10.002;2023-04-06T08:48:56;10.60;99.90
21522;DHT22;10922;45.572;10.002;2023-04-06T08:51:26;10.70;99.90
21522;DHT22;10922;45.572;10.002;2023-04-06T08:53:56;10.60;99.90
21522;DHT22;10922;45.572;10.002;2023-04-06T08:56:23;10.60;99.90
21522;DHT22;10922;45.572;10.002;2023-04-06T08:58:49;10.60;99.90
21522;DHT22;10922;45.572;10.002;2023-04-06T09:01:18;10.80;99.90
21522;DHT22;10922;45.572;10.002;2023-04-06T09:03:46;10.70;99.90
21522;DHT22;10922;45.572;10.002;2023-04-06T09:06:13;10.80;99.90
21522;DHT22;10922;45.572;10.002;2023-04-06T09:08:40;10.70;99.90
21522;DHT22;10922;45.572;10.002;2023-04-06T09:11:06;10.90;99.90
21522;DHT22;10922;45.572;10.002;2023-04-06T09:13:51;10.90;99.90
21522;DHT22;10922;45.572;10.002;2023-04-06T09:16:17;11.00;99.90
21522;DHT22;10922;45.572;10.002;2023-04-06T09:18:44;11.20;99.90
21522;DHT22;10922;45.572;10.002;2023-04-06T09:21:10;11.10;99.90
21522;DHT22;10922;45.572;10.002;2023-04-06T09:23:37;10.80;99.90
21522;DHT22;10922;45.572;10.002;2023-04-06T09:28:53;11.00;99.90
21522;DHT22;10922;45.572;10.002;2023-04-06T09:31:27;11.10;99.90
21522;DHT22;10922;45.572;10.002;2023-04-06T09:33:54;11.10;99.90
21522;DHT22;10922;45.572;10.002;2023-04-06T09:36:29;11.30;99.90
21522;DHT22;10922;45.572;10.002;2023-04-06T09:38:56;11.30;99.90
21522;DHT22;10922;45.572;10.002;2023-04-06T09:41:26;11.10;99.90
21522;DHT22;10922;45.572;10.002;2023-04-06T09:44:05;11.50;99.90
21522;DHT22;10922;45.572;10.002;2023-04-06T09:46:33;11.30;99.90
21522;DHT22;10922;45.572;10.002;2023-04-06T09:49:03;11.40;99.90
21522;DHT22;10922;45.572;10.002;2023-04-06T09:51:31;11.40;99.90
21522;DHT22;10922;45.572;10.002;2023-04-06T09:53:59;11.30;99.90
21522;DHT22;10922;45.572;10.002;2023-04-06T09:56:31;11.50;99.90
21522;DHT22;10922;45.572;10.002;2023-04-06T09:59:02;11.60;99.90
21522;DHT22;10922;45.572;10.002;2023-04-06T10:01:31;11.60;99.90
21522;DHT22;10922;45.572;10.002;2023-04-06T10:06:49;11.50;99.90
21522;DHT22;10922;45.572;10.002;2023-04-06T10:09:18;11.70;99.90
21522;DHT22;10922;45.572;10.002;2023-04-06T10:11:47;11.70;99.90
21522;DHT22;10922;45.572;10.002;2023-04-06T10:14:16;11.50;99.90
21522;DHT22;10922;45.572;10.002;2023-04-06T10:16:42;11.40;99.90
21522;DHT22;10922;45.572;10.002;2023-04-06T10:19:21;11.40;99.90
21522;DHT22;10922;45.572;10.002;2023-04-06T10:21:50;11.60;99.90
21522;DHT22;10922;45.572;10.002;2023-04-06T10:24:19;11.80;99.90
21522;DHT22;10922;45.572;10.002;2023-04-06T10:27:02;11.90;99.90
21522;DHT22;10922;45.572;10.002;2023-04-06T10:29:40;11.90;99.90
21522;DHT22;10922;45.572;10.002;2023-04-06T10:32:06;11.90;99.90
21522;DHT22;10922;45.572;10.002;2023-04-06T10:34:35;11.80;99.90
21522;DHT22;10922;45.572;10.002;2023-04-06T10:37:13;12.10;99.90
21522;DHT22;10922;45.572;10.002;2023-04-06T10:40:06;12.10;99.90
21522;DHT22;10922;45.572;10.002;2023-04-06T10:42:38;12.10;99.90
21522;DHT22;10922;45.572;10.002;2023-04-06T10:45:19;12.20;99.90
21522;DHT22;10922;45.572;10.002;2023-04-06T10:47:46;12.30;99.90
21522;DHT22;10922;45.572;10.002;2023-04-06T10:50:14;12.00;99.90
21522;DHT22;10922;45.572;10.002;2023-04-06T10:52:41;12.10;99.90
21522;DHT22;10922;45.572;10.002;2023-04-06T10:55:08;12.10;99.90
21522;DHT22;10922;45.572;10.002;2023-04-06T10:57:37;12.30;99.90
21522;DHT22;10922;45.572;10.002;2023-04-06T11:00:05;12.30;99.90
21522;DHT22;10922;45.572;10.002;2023-04-06T11:02:31;12.40;99.90
21522;DHT22;10922;45.572;10.002;2023-04-06T11:04:58;12.40;99.90
21522;DHT22;10922;45.572;10.002;2023-04-06T11:07:27;12.80;99.90
21522;DHT22;10922;45.572;10.002;2023-04-06T11:09:58;12.70;99.90
21522;DHT22;10922;45.572;10.002;2023-04-06T11:12:25;12.70;99.90
21522;DHT22;10922;45.572;10.002;2023-04-06T11:15:02;12.80;99.90
21522;DHT22;10922;45.572;10.002;2023-04-06T11:17:35;12.80;99.90
21522;DHT22;10922;45.572;10.002;2023-04-06T11:20:09;12.80;99.90
21522;DHT22;10922;45.572;10.002;2023-04-06T11:22:35;12.70;99.90
21522;DHT22;10922;45.572;10.002;2023-04-06T11:25:08;12.80;99.90
21522;DHT22;10922;45.572;10.002;2023-04-06T11:27:34;12.80;99.90
21522;DHT22;10922;45.572;10.002;2023-04-06T11:30:01;13.00;99.90
21522;DHT22;10922;45.572;10.002;2023-04-06T11:32:28;13.20;99.90
21522;DHT22;10922;45.572;10.002;2023-04-06T11:34:53;13.20;99.90
21522;DHT22;10922;45.572;10.002;2023-04-06T11:37:19;13.50;99.90
21522;DHT22;10922;45.572;10.002;2023-04-06T11:39:55;12.90;99.90
21522;DHT22;10922;45.572;10.002;2023-04-06T11:42:27;13.20;99.90
21522;DHT22;10922;45.572;10.002;2023-04-06T11:45:09;13.60;99.90
21522;DHT22;10922;45.572;10.002;2023-04-06T11:47:36;13.60;99.90
21522;DHT22;10922;45.572;10.002;2023-04-06T11:50:10;13.40;99.90
21522;DHT22;10922;45.572;10.002;2023-04-06T11:52:36;13.50;99.90
21522;DHT22;10922;45.572;10.002;2023-04-06T11:55:16;13.10;99.90
21522;DHT22;10922;45.572;10.002;2023-04-06T11:57:42;13.40;99.90
21522;DHT22;10922;45.572;10.002;2023-04-06T12:00:09;13.60;99.90
21522;DHT22;10922;45.572;10.002;2023-04-06T12:02:36;14.10;99.90
21522;DHT22;10922;45.572;10.002;2023-04-06T12:05:03;14.30;99.90
21522;DHT22;10922;45.572;10.002;2023-04-06T12:07:30;13.90;99.90
21522;DHT22;10922;45.572;10.002;2023-04-06T12:09:56;13.90;99.90
21522;DHT22;10922;45.572;10.002;2023-04-06T12:12:21;13.90;99.90
21522;DHT22;10922;45.572;10.002;2023-04-06T12:14:47;14.30;99.90
21522;DHT22;10922;45.572;10.002;2023-04-06T12:17:13;14.60;99.90
21522;DHT22;10922;45.572;10.002;2023-04-06T12:19:38;14.20;99.90
21522;DHT22;10922;45.572;10.002;2023-04-06T12:22:07;14.00;99.90
21522;DHT22;10922;45.572;10.002;2023-04-06T12:24:33;13.60;99.90
21522;DHT22;10922;45.572;10.002;2023-04-06T12:26:59;14.10;99.90
21522;DHT22;10922;45.572;10.002;2023-04-06T12:29:25;13.70;99.90
21522;DHT22;10922;45.572;10.002;2023-04-06T12:31:51;14.00;99.90
21522;DHT22;10922;45.572;10.002;2023-04-06T12:34:17;14.60;99.90
21522;DHT22;10922;45.572;10.002;2023-04-06T12:36:43;14.80;99.90
21522;DHT22;10922;45.572;10.002;2023-04-06T12:39:08;14.60;99.90
21522;DHT22;10922;45.572;10.002;2023-04-06T12:41:37;14.30;99.90
21522;DHT22;10922;45.572;10.002;2023-04-06T12:44:06;14.30;99.90
21522;DHT22;10922;45.572;10.002;2023-04-06T12:46:32;14.40;99.90
21522;DHT22;10922;45.572;10.002;2023-04-06T12:48:58;15.10;99.90
21522;DHT22;10922;45.572;10.002;2023-04-06T12:51:27;16.30;99.90
21522;DHT22;10922;45.572;10.002;2023-04-06T12:53:53;18.10;99.90
21522;DHT22;10922;45.572;10.002;2023-04-06T12:56:18;18.90;99.90
21522;DHT22;10922;45.572;10.002;2023-04-06T12:58:46;20.50;99.90
21522;DHT22;10922;45.572;10.002;2023-04-06T13:01:13;20.70;99.90
21522;DHT22;10922;45.572;10.002;2023-04-06T13:03:39;20.80;99.90
21522;DHT22;10922;45.572;10.002;2023-04-06T13:06:06;21.40;99.90
21522;DHT22;10922;45.572;10.002;2023-04-06T13:08:31;24.10;99.90
21522;DHT22;10922;45.572;10.002;2023-04-06T13:10:57;25.50;99.90
21522;DHT22;10922;45.572;10.002;2023-04-06T13:13:25;23.00;99.90
21522;DHT22;10922;45.572;10.002;2023-04-06T13:15:52;22.00;99.90
21522;DHT22;10922;45.572;10.002;2023-04-06T13:18:18;21.50;99.90
21522;DHT22;10922;45.572;10.002;2023-04-06T13:20:44;22.20;99.90
21522;DHT22;10922;45.572;10.002;2023-04-06T13:23:09;24.60;99.90
21522;DHT22;10922;45.572;10.002;2023-04-06T13:25:37;22.70;99.90
21522;DHT22;10922;45.572;10.002;2023-04-06T13:28:02;22.30;99.90
21522;DHT22;10922;45.572;10.002;2023-04-06T13:30:28;25.70;99.90
21522;DHT22;10922;45.572;10.002;2023-04-06T13:32:54;23.10;99.90
21522;DHT22;10922;45.572;10.002;2023-04-06T13:35:20;22.40;99.90
21522;DHT22;10922;45.572;10.002;2023-04-06T13:37:46;25.00;99.90
21522;DHT22;10922;45.572;10.002;2023-04-06T13:40:15;25.20;99.90
21522;DHT22;10922;45.572;10.002;2023-04-06T13:42:41;25.70;99.90
21522;DHT22;10922;45.572;10.002;2023-04-06T13:45:09;27.30;99.90
21522;DHT22;10922;45.572;10.002;2023-04-06T13:47:35;28.00;99.90
21522;DHT22;10922;45.572;10.002;2023-04-06T13:50:02;27.40;99.90
21522;DHT22;10922;45.572;10.002;2023-04-06T13:52:29;26.20;99.90
21522;DHT22;10922;45.572;10.002;2023-04-06T13:54:55;24.70;99.90
21522;DHT22;10922;45.572;10.002;2023-04-06T13:57:21;26.40;99.90
21522;DHT22;10922;45.572;10.002;2023-04-06T13:59:46;26.90;99.90
21522;DHT22;10922;45.572;10.002;2023-04-06T14:02:12;27.40;99.90
21522;DHT22;10922;45.572;10.002;2023-04-06T14:04:38;27.90;99.90
21522;DHT22;10922;45.572;10.002;2023-04-06T14:07:05;28.80;99.90
21522;DHT22;10922;45.572;10.002;2023-04-06T14:09:34;27.90;99.90
21522;DHT22;10922;45.572;10.002;2023-04-06T14:12:00;27.10;99.90
21522;DHT22;10922;45.572;10.002;2023-04-06T14:14:25;25.30;99.90
21522;DHT22;10922;45.572;10.002;2023-04-06T14:16:52;26.20;99.90
21522;DHT22;10922;45.572;10.002;2023-04-06T14:19:23;25.10;99.90
21522;DHT22;10922;45.572;10.002;2023-04-06T14:21:49;25.40;99.90
21522;DHT22;10922;45.572;10.002;2023-04-06T14:24:15;26.70;99.90
21522;DHT22;10922;45.572;10.002;2023-04-06T14:26:44;26.20;99.90
21522;DHT22;10922;45.572;10.002;2023-04-06T14:29:10;24.50;99.90
21522;DHT22;10922;45.572;10.002;2023-04-06T14:31:36;22.20;99.90
21522;DHT22;10922;45.572;10.002;2023-04-06T14:34:02;22.10;99.90
21522;DHT22;10922;45.572;10.002;2023-04-06T14:36:32;20.60;99.90
21522;DHT22;10922;45.572;10.002;2023-04-06T14:39:04;21.60;99.90
21522;DHT22;10922;45.572;10.002;2023-04-06T14:41:31;21.20;99.90
21522;DHT22;10922;45.572;10.002;2023-04-06T14:43:57;20.50;99.90
21522;DHT22;10922;45.572;10.002;2023-04-06T14:46:23;23.00;99.90
21522;DHT22;10922;45.572;10.002;2023-04-06T14:48:49;23.30;99.90
21522;DHT22;10922;45.572;10.002;2023-04-06T14:51:14;22.50;99.90
21522;DHT22;10922;45.572;10.002;2023-04-06T14:53:40;21.60;99.90
21522;DHT22;10922;45.572;10.002;2023-04-06T14:56:06;21.30;99.90
21522;DHT22;10922;45.572;10.002;2023-04-06T14:58:32;22.10;99.90
21522;DHT22;10922;45.572;10.002;2023-04-06T15:00:58;21.40;99.90
21522;DHT22;10922;45.572;10.002;2023-04-06T15:03:28;22.20;99.90
21522;DHT22;10922;45.572;10.002;2023-04-06T15:05:55;22.30;99.90
21522;DHT22;10922;45.572;10.002;2023-04-06T15:08:21;21.20;99.90
21522;DHT22;10922;45.572;10.002;2023-04-06T15:10:48;19.80;99.90
21522;DHT22;10922;45.572;10.002;2023-04-06T15:13:14;19.50;99.90
21522;DHT22;10922;45.572;10.002;2023-04-06T15:15:43;18.70;99.90
21522;DHT22;10922;45.572;10.002;2023-04-06T15:18:10;18.60;99.90
21522;DHT22;10922;45.572;10.002;2023-04-06T15:20:38;18.60;99.90
21522;DHT22;10922;45.572;10.002;2023-04-06T15:23:03;18.20;99.90
21522;DHT22;10922;45.572;10.002;2023-04-06T15:25:30;18.80;99.90
21522;DHT22;10922;45.572;10.002;2023-04-06T15:27:56;18.30;99.90